EST,Max TemperatureF,Mean TemperatureF,Min TemperatureF,Max Dew PointF,MeanDew PointF,Min DewpointF,Max Humidity, Mean Humidity, Min Humidity, Max Sea Level PressureIn, Mean Sea Level PressureIn, Min Sea Level PressureIn, Max VisibilityMiles, Mean VisibilityMiles, Min VisibilityMiles, Max Wind SpeedMPH, Mean Wind SpeedMPH, Max Gust SpeedMPH,PrecipitationIn, CloudCover, Events, WindDirDegrees
2013-1-1,48,44,39,39,36,28,87,70,46,30.04,29.99,29.91,10,10,7,14,7,23,0.10,4,Rain,116
2013-1-2,42,38,33,36,28,18,93,70,48,30.22,30.10,29.99,10,9,3,14,4,22,0.18,3,Rain,131
2013-1-3,37,32,26,25,19,14,93,59,38,30.26,30.21,30.17,10,10,10,9,4,,0.00,0,,127
2013-1-4,44,35,26,30,26,21,100,71,39,30.24,30.18,30.12,10,10,4,10,4,,0.00,0,,119
2013-1-5,44,38,32,30,25,21,81,58,39,30.38,30.29,30.18,10,10,10,16,6,22,0.00,0,,123
2013-1-6,48,42,35,37,35,32,93,76,54,30.25,30.13,30.05,10,10,10,13,5,16,0.02,4,Rain,115
2013-1-7,48,39,30,36,30,27,93,68,43,30.46,30.34,30.13,10,10,7,15,5,24,0.00,1,,129
2013-1-8,55,42,28,41,34,27,93,75,47,30.48,30.43,30.39,10,10,7,7,3,,0.00,3,,118
2013-1-9,66,52,39,50,45,37,93,71,52,30.42,30.35,30.28,10,10,5,14,3,20,0.00,2,,107
2013-1-10,53,46,39,46,34,28,87,60,38,30.58,30.50,30.38,10,10,10,15,5,22,0.00,0,,86
2013-1-11,57,45,33,54,43,30,94,87,72,30.50,30.30,30.11,10,7,2,10,3,16,0.04,5,Rain,147
2013-1-12,55,48,41,54,46,39,100,92,77,30.18,30.14,30.10,10,3,0,12,5,,0.00,6,Fog,300
2013-1-13,59,49,41,57,49,39,100,94,87,30.16,30.11,30.05,7,2,0,12,5,16,0.00,6,Fog,168
2013-1-14,68,58,48,61,56,45,94,86,77,30.22,30.13,30.05,10,8,2,14,9,21,0.51,4,Rain,268
2013-1-15,46,45,44,45,43,41,93,90,87,30.28,30.22,30.09,10,6,1,13,9,20,0.29,8,Rain,36
2013-1-16,48,44,39,46,42,37,93,91,87,30.09,30.01,29.92,10,7,1,14,6,22,0.29,8,Rain,302
2013-1-17,46,40,33,45,40,32,93,90,81,30.13,30.05,29.98,10,6,1,10,3,16,0.61,8,Rain-Snow,12
2013-1-18,39,32,26,36,26,18,100,70,45,30.55,30.37,30.03,10,9,1,21,8,29,0.07,2,Snow,333
2013-1-19,53,40,28,37,28,19,86,61,30,30.51,30.33,30.09,10,10,10,20,8,24,0.00,0,,201
2013-1-20,60,51,42,36,31,21,58,47,32,30.08,29.98,29.87,10,10,10,20,13,31,0.00,0,,250
2013-1-21,51,40,30,41,29,18,86,63,42,30.10,29.97,29.77,10,10,10,24,6,33,0.00,1,,94
2013-1-22,35,28,21,25,9,0,65,43,29,30.29,30.13,29.91,10,10,10,24,11,32,0.00,0,,331
2013-1-23,30,22,15,16,7,1,68,48,29,30.36,30.26,30.14,10,10,10,15,6,22,0.00,2,,351
2013-1-24,28,24,21,21,11,1,86,55,34,30.51,30.29,30.01,10,9,2,20,9,34,0.00,4,Snow,358
2013-1-25,28,22,15,27,15,5,93,68,43,30.51,30.32,30.08,10,8,1,13,4,18,0.04,4,Snow,243
2013-1-26,37,28,19,21,19,18,93,69,48,30.43,30.21,30.08,10,10,2,17,7,25,0.00,2,,343
2013-1-27,28,27,26,19,18,16,74,68,59,30.55,30.50,30.44,10,10,10,7,5,,0.00,0,,30
2013-1-28,51,42,33,45,36,23,93,74,54,30.47,30.27,30.12,10,9,2,18,9,26,0.05,4,Rain-Snow,217
2013-1-29,69,58,48,52,47,45,88,75,53,30.16,30.11,30.07,10,10,7,15,8,22,0.00,0,,217
2013-1-30,69,60,51,59,55,48,94,82,64,30.07,29.82,29.47,10,9,0,24,11,39,0.00,2,Fog,182
2013-1-31,62,50,39,61,33,16,94,52,28,29.95,29.64,29.30,10,10,4,28,19,44,0.49,3,Rain,258